Terminal Aerodrome Forecast
Issued by NWS

Home | Current Version | Previous Version | Graphics & Text | Print | Product List | Glossary On
Versions: 1 2 3 4 5 6 7 8 9 10 11 12 13 14 15 16 17 18 19 20 21 22 23 24 25 26
000
FTUS43 KABR 160700 AAA
TAFATY
TAF AMD
KATY 160735Z 1608/1706 10014G19KT P6SM BKN100
     FM161000 09018G25KT P6SM VCSH OVC080
     FM161200 08018G25KT 4SM -SN OVC035
     FM161400 05015G23KT 1SM -SN OVC015
     FM162100 02021G30KT 2SM -SN BLSN OVC025
     FM170200 36016KT P6SM OVC030=

USA.gov is the U.S. government's official web portal to all federal, state and local government web resources and services.